sensor_id;sensor_type;location;lat;lon;timestamp;P1;durP1;ratioP1;P2;durP2;ratioP2
2570;SDS011;1295;51.130;6.732;2023-05-10T00:02:05;69.80;;;29.10;;
2570;SDS011;1295;51.130;6.732;2023-05-10T00:04:31;70.77;;;28.40;;
2570;SDS011;1295;51.130;6.732;2023-05-10T00:06:57;71.30;;;29.60;;
2570;SDS011;1295;51.130;6.732;2023-05-10T00:09:22;68.80;;;28.23;;
2570;SDS011;1295;51.130;6.732;2023-05-10T00:11:49;69.90;;;30.60;;
2570;SDS011;1295;51.130;6.732;2023-05-10T00:14:14;70.50;;;28.83;;
2570;SDS011;1295;51.130;6.732;2023-05-10T00:16:40;71.50;;;30.73;;
2570;SDS011;1295;51.130;6.732;2023-05-10T00:19:05;69.93;;;26.43;;
2570;SDS011;1295;51.130;6.732;2023-05-10T00:21:32;67.10;;;21.93;;
2570;SDS011;1295;51.130;6.732;2023-05-10T00:23:58;69.10;;;18.20;;
2570;SDS011;1295;51.130;6.732;2023-05-10T00:26:23;70.40;;;25.73;;
2570;SDS011;1295;51.130;6.732;2023-05-10T00:28:49;69.20;;;20.57;;
2570;SDS011;1295;51.130;6.732;2023-05-10T00:31:14;72.40;;;24.20;;
2570;SDS011;1295;51.130;6.732;2023-05-10T00:33:41;67.37;;;25.27;;
2570;SDS011;1295;51.130;6.732;2023-05-10T00:36:06;67.40;;;15.70;;
2570;SDS011;1295;51.130;6.732;2023-05-10T00:38:33;63.40;;;13.20;;
2570;SDS011;1295;51.130;6.732;2023-05-10T00:40:58;65.27;;;17.30;;
2570;SDS011;1295;51.130;6.732;2023-05-10T00:43:24;67.20;;;13.43;;
2570;SDS011;1295;51.130;6.732;2023-05-10T00:45:49;66.27;;;11.77;;
2570;SDS011;1295;51.130;6.732;2023-05-10T00:48:15;66.07;;;18.80;;
2570;SDS011;1295;51.130;6.732;2023-05-10T00:50:41;64.17;;;11.77;;
2570;SDS011;1295;51.130;6.732;2023-05-10T00:53:07;62.10;;;12.20;;
2570;SDS011;1295;51.130;6.732;2023-05-10T00:55:32;59.80;;;12.30;;
2570;SDS011;1295;51.130;6.732;2023-05-10T00:57:58;61.40;;;12.03;;
2570;SDS011;1295;51.130;6.732;2023-05-10T01:00:23;60.37;;;10.27;;
2570;SDS011;1295;51.130;6.732;2023-05-10T01:02:57;58.87;;;9.50;;
2570;SDS011;1295;51.130;6.732;2023-05-10T01:05:23;60.90;;;10.23;;
2570;SDS011;1295;51.130;6.732;2023-05-10T01:07:49;61.30;;;12.60;;
2570;SDS011;1295;51.130;6.732;2023-05-10T01:10:14;65.20;;;16.23;;
2570;SDS011;1295;51.130;6.732;2023-05-10T01:12:44;62.67;;;17.20;;
2570;SDS011;1295;51.130;6.732;2023-05-10T01:15:07;63.60;;;20.33;;
2570;SDS011;1295;51.130;6.732;2023-05-10T01:17:34;62.27;;;21.53;;
2570;SDS011;1295;51.130;6.732;2023-05-10T01:19:59;64.47;;;23.27;;
2570;SDS011;1295;51.130;6.732;2023-05-10T01:22:35;65.20;;;25.27;;
2570;SDS011;1295;51.130;6.732;2023-05-10T01:27:55;64.77;;;25.07;;
2570;SDS011;1295;51.130;6.732;2023-05-10T01:33:19;64.30;;;18.27;;
2570;SDS011;1295;51.130;6.732;2023-05-10T01:35:47;62.73;;;17.73;;
2570;SDS011;1295;51.130;6.732;2023-05-10T01:38:16;62.43;;;15.67;;
2570;SDS011;1295;51.130;6.732;2023-05-10T01:41:01;61.87;;;12.87;;
2570;SDS011;1295;51.130;6.732;2023-05-10T01:43:30;58.97;;;7.77;;
2570;SDS011;1295;51.130;6.732;2023-05-10T01:45:59;60.37;;;13.63;;
2570;SDS011;1295;51.130;6.732;2023-05-10T01:48:26;59.37;;;10.40;;
2570;SDS011;1295;51.130;6.732;2023-05-10T01:50:51;60.20;;;10.40;;
2570;SDS011;1295;51.130;6.732;2023-05-10T01:53:18;61.17;;;12.33;;
2570;SDS011;1295;51.130;6.732;2023-05-10T01:55:46;58.57;;;8.47;;
2570;SDS011;1295;51.130;6.732;2023-05-10T01:58:12;58.03;;;8.27;;
2570;SDS011;1295;51.130;6.732;2023-05-10T02:00:36;56.47;;;6.73;;
2570;SDS011;1295;51.130;6.732;2023-05-10T02:03:04;55.53;;;7.50;;
2570;SDS011;1295;51.130;6.732;2023-05-10T02:05:27;56.70;;;7.60;;
2570;SDS011;1295;51.130;6.732;2023-05-10T02:07:53;57.77;;;9.80;;
2570;SDS011;1295;51.130;6.732;2023-05-10T02:10:18;57.60;;;8.37;;
2570;SDS011;1295;51.130;6.732;2023-05-10T02:12:45;59.90;;;8.00;;
2570;SDS011;1295;51.130;6.732;2023-05-10T02:15:11;59.70;;;9.90;;
2570;SDS011;1295;51.130;6.732;2023-05-10T02:17:36;58.13;;;9.60;;
2570;SDS011;1295;51.130;6.732;2023-05-10T02:20:02;58.47;;;11.57;;
2570;SDS011;1295;51.130;6.732;2023-05-10T02:22:28;63.30;;;12.10;;
2570;SDS011;1295;51.130;6.732;2023-05-10T02:24:55;60.13;;;13.60;;
2570;SDS011;1295;51.130;6.732;2023-05-10T02:27:20;60.70;;;15.30;;
2570;SDS011;1295;51.130;6.732;2023-05-10T02:29:45;61.03;;;14.17;;
2570;SDS011;1295;51.130;6.732;2023-05-10T02:32:11;60.70;;;16.97;;
2570;SDS011;1295;51.130;6.732;2023-05-10T02:34:36;62.80;;;15.90;;
2570;SDS011;1295;51.130;6.732;2023-05-10T02:37:02;62.00;;;13.70;;
2570;SDS011;1295;51.130;6.732;2023-05-10T02:39:28;58.90;;;12.17;;
2570;SDS011;1295;51.130;6.732;2023-05-10T02:41:54;62.60;;;15.20;;
2570;SDS011;1295;51.130;6.732;2023-05-10T02:44:20;59.87;;;13.20;;
2570;SDS011;1295;51.130;6.732;2023-05-10T02:46:45;61.93;;;13.40;;
2570;SDS011;1295;51.130;6.732;2023-05-10T02:49:11;61.30;;;16.80;;
2570;SDS011;1295;51.130;6.732;2023-05-10T02:51:37;62.27;;;16.33;;
2570;SDS011;1295;51.130;6.732;2023-05-10T02:54:10;63.57;;;15.97;;
2570;SDS011;1295;51.130;6.732;2023-05-10T02:56:39;64.50;;;15.07;;
2570;SDS011;1295;51.130;6.732;2023-05-10T02:59:02;61.10;;;16.40;;
2570;SDS011;1295;51.130;6.732;2023-05-10T03:01:28;62.30;;;14.73;;
2570;SDS011;1295;51.130;6.732;2023-05-10T03:03:54;62.80;;;16.07;;
2570;SDS011;1295;51.130;6.732;2023-05-10T03:06:19;65.27;;;17.07;;
2570;SDS011;1295;51.130;6.732;2023-05-10T03:08:45;62.47;;;16.10;;
2570;SDS011;1295;51.130;6.732;2023-05-10T03:11:23;65.30;;;17.27;;
2570;SDS011;1295;51.130;6.732;2023-05-10T03:14:07;62.37;;;15.33;;
2570;SDS011;1295;51.130;6.732;2023-05-10T03:16:32;64.47;;;18.87;;
2570;SDS011;1295;51.130;6.732;2023-05-10T03:18:56;63.40;;;17.13;;
2570;SDS011;1295;51.130;6.732;2023-05-10T03:21:22;69.70;;;23.20;;
2570;SDS011;1295;51.130;6.732;2023-05-10T03:23:51;69.97;;;23.43;;
2570;SDS011;1295;51.130;6.732;2023-05-10T03:26:24;67.10;;;27.07;;
2570;SDS011;1295;51.130;6.732;2023-05-10T03:28:50;68.03;;;29.37;;
2570;SDS011;1295;51.130;6.732;2023-05-10T03:31:15;69.50;;;26.77;;
2570;SDS011;1295;51.130;6.732;2023-05-10T03:33:45;66.97;;;25.27;;
2570;SDS011;1295;51.130;6.732;2023-05-10T03:36:11;68.07;;;26.70;;
2570;SDS011;1295;51.130;6.732;2023-05-10T03:38:37;69.10;;;28.60;;
2570;SDS011;1295;51.130;6.732;2023-05-10T03:41:03;63.77;;;22.53;;
2570;SDS011;1295;51.130;6.732;2023-05-10T03:43:28;72.97;;;23.47;;
2570;SDS011;1295;51.130;6.732;2023-05-10T03:45:55;71.43;;;30.67;;
2570;SDS011;1295;51.130;6.732;2023-05-10T03:48:20;69.40;;;28.40;;
2570;SDS011;1295;51.130;6.732;2023-05-10T03:50:46;74.00;;;36.80;;
2570;SDS011;1295;51.130;6.732;2023-05-10T03:53:12;72.67;;;33.43;;
2570;SDS011;1295;51.130;6.732;2023-05-10T03:55:37;69.87;;;33.43;;
2570;SDS011;1295;51.130;6.732;2023-05-10T03:58:03;77.03;;;36.00;;
2570;SDS011;1295;51.130;6.732;2023-05-10T04:00:28;73.67;;;45.77;;
2570;SDS011;1295;51.130;6.732;2023-05-10T04:02:55;86.63;;;69.73;;
2570;SDS011;1295;51.130;6.732;2023-05-10T04:05:21;114.90;;;104.27;;
2570;SDS011;1295;51.130;6.732;2023-05-10T04:07:46;151.53;;;139.63;;
2570;SDS011;1295;51.130;6.732;2023-05-10T04:10:12;141.57;;;129.90;;
2570;SDS011;1295;51.130;6.732;2023-05-10T04:12:38;121.17;;;109.43;;
2570;SDS011;1295;51.130;6.732;2023-05-10T04:15:04;89.93;;;74.57;;
2570;SDS011;1295;51.130;6.732;2023-05-10T04:17:31;79.03;;;26.83;;
2570;SDS011;1295;51.130;6.732;2023-05-10T04:19:56;77.77;;;27.63;;
2570;SDS011;1295;51.130;6.732;2023-05-10T04:22:22;76.73;;;23.17;;
2570;SDS011;1295;51.130;6.732;2023-05-10T04:24:47;78.53;;;24.53;;
2570;SDS011;1295;51.130;6.732;2023-05-10T04:27:13;69.83;;;21.30;;
2570;SDS011;1295;51.130;6.732;2023-05-10T04:29:39;82.63;;;36.43;;
2570;SDS011;1295;51.130;6.732;2023-05-10T04:32:15;81.53;;;41.23;;
2570;SDS011;1295;51.130;6.732;2023-05-10T04:34:40;94.97;;;46.80;;
2570;SDS011;1295;51.130;6.732;2023-05-10T04:37:06;81.07;;;29.80;;
2570;SDS011;1295;51.130;6.732;2023-05-10T04:39:31;82.83;;;45.67;;
2570;SDS011;1295;51.130;6.732;2023-05-10T04:41:57;76.00;;;34.77;;
2570;SDS011;1295;51.130;6.732;2023-05-10T04:44:23;76.37;;;26.60;;
2570;SDS011;1295;51.130;6.732;2023-05-10T04:46:48;74.17;;;28.60;;
2570;SDS011;1295;51.130;6.732;2023-05-10T04:49:15;74.70;;;26.13;;
2570;SDS011;1295;51.130;6.732;2023-05-10T04:51:40;77.83;;;30.40;;
2570;SDS011;1295;51.130;6.732;2023-05-10T04:54:06;66.73;;;22.23;;
2570;SDS011;1295;51.130;6.732;2023-05-10T04:56:32;73.70;;;33.93;;
2570;SDS011;1295;51.130;6.732;2023-05-10T04:58:58;68.20;;;23.23;;
2570;SDS011;1295;51.130;6.732;2023-05-10T05:01:24;74.70;;;23.40;;
2570;SDS011;1295;51.130;6.732;2023-05-10T05:03:49;74.23;;;34.73;;
2570;SDS011;1295;51.130;6.732;2023-05-10T05:06:15;67.23;;;25.10;;
2570;SDS011;1295;51.130;6.732;2023-05-10T05:08:41;72.90;;;23.13;;
2570;SDS011;1295;51.130;6.732;2023-05-10T05:11:06;68.07;;;18.30;;
2570;SDS011;1295;51.130;6.732;2023-05-10T05:13:32;67.10;;;17.10;;
2570;SDS011;1295;51.130;6.732;2023-05-10T05:15:59;70.67;;;21.00;;
2570;SDS011;1295;51.130;6.732;2023-05-10T05:18:23;71.77;;;20.53;;
2570;SDS011;1295;51.130;6.732;2023-05-10T05:20:50;66.50;;;18.27;;
2570;SDS011;1295;51.130;6.732;2023-05-10T05:23:16;68.83;;;21.53;;
2570;SDS011;1295;51.130;6.732;2023-05-10T05:25:42;77.80;;;17.80;;
2570;SDS011;1295;51.130;6.732;2023-05-10T05:28:07;73.87;;;22.70;;
2570;SDS011;1295;51.130;6.732;2023-05-10T05:30:33;68.77;;;20.90;;
2570;SDS011;1295;51.130;6.732;2023-05-10T05:32:59;67.30;;;22.77;;
2570;SDS011;1295;51.130;6.732;2023-05-10T05:35:24;76.07;;;30.70;;
2570;SDS011;1295;51.130;6.732;2023-05-10T05:37:50;64.27;;;20.90;;
2570;SDS011;1295;51.130;6.732;2023-05-10T05:40:16;68.83;;;25.00;;
2570;SDS011;1295;51.130;6.732;2023-05-10T05:42:42;70.17;;;24.60;;
2570;SDS011;1295;51.130;6.732;2023-05-10T05:45:08;67.77;;;21.13;;
2570;SDS011;1295;51.130;6.732;2023-05-10T05:47:35;72.47;;;24.90;;
2570;SDS011;1295;51.130;6.732;2023-05-10T05:50:01;65.80;;;23.23;;
2570;SDS011;1295;51.130;6.732;2023-05-10T05:52:27;70.97;;;17.70;;
2570;SDS011;1295;51.130;6.732;2023-05-10T05:54:52;69.67;;;26.03;;
2570;SDS011;1295;51.130;6.732;2023-05-10T05:57:18;72.60;;;23.43;;
2570;SDS011;1295;51.130;6.732;2023-05-10T05:59:44;76.20;;;32.83;;
2570;SDS011;1295;51.130;6.732;2023-05-10T06:02:10;69.63;;;15.30;;
2570;SDS011;1295;51.130;6.732;2023-05-10T06:04:36;73.10;;;20.30;;
2570;SDS011;1295;51.130;6.732;2023-05-10T06:07:01;70.97;;;18.60;;
2570;SDS011;1295;51.130;6.732;2023-05-10T06:09:27;65.70;;;17.00;;
2570;SDS011;1295;51.130;6.732;2023-05-10T06:11:53;75.40;;;20.10;;
2570;SDS011;1295;51.130;6.732;2023-05-10T06:14:20;77.03;;;20.60;;
2570;SDS011;1295;51.130;6.732;2023-05-10T06:16:45;71.37;;;19.90;;
2570;SDS011;1295;51.130;6.732;2023-05-10T06:19:11;69.33;;;13.97;;
2570;SDS011;1295;51.130;6.732;2023-05-10T06:21:37;72.10;;;18.77;;
2570;SDS011;1295;51.130;6.732;2023-05-10T06:24:02;77.30;;;20.90;;
2570;SDS011;1295;51.130;6.732;2023-05-10T06:26:28;72.10;;;18.57;;
2570;SDS011;1295;51.130;6.732;2023-05-10T06:28:54;69.53;;;14.07;;
2570;SDS011;1295;51.130;6.732;2023-05-10T06:31:20;71.67;;;16.40;;
2570;SDS011;1295;51.130;6.732;2023-05-10T06:33:45;69.67;;;17.60;;
2570;SDS011;1295;51.130;6.732;2023-05-10T06:36:11;80.10;;;19.60;;
2570;SDS011;1295;51.130;6.732;2023-05-10T06:38:37;74.60;;;19.03;;
2570;SDS011;1295;51.130;6.732;2023-05-10T06:41:02;75.10;;;20.17;;
2570;SDS011;1295;51.130;6.732;2023-05-10T06:43:28;76.03;;;21.50;;
2570;SDS011;1295;51.130;6.732;2023-05-10T06:45:54;80.33;;;23.37;;
2570;SDS011;1295;51.130;6.732;2023-05-10T06:48:20;74.03;;;20.97;;
2570;SDS011;1295;51.130;6.732;2023-05-10T06:50:46;77.77;;;21.87;;
2570;SDS011;1295;51.130;6.732;2023-05-10T06:53:12;78.73;;;23.20;;
2570;SDS011;1295;51.130;6.732;2023-05-10T06:55:38;75.70;;;30.10;;
2570;SDS011;1295;51.130;6.732;2023-05-10T06:58:04;87.43;;;25.37;;
2570;SDS011;1295;51.130;6.732;2023-05-10T07:00:30;76.57;;;21.53;;
2570;SDS011;1295;51.130;6.732;2023-05-10T07:02:55;74.23;;;23.80;;
2570;SDS011;1295;51.130;6.732;2023-05-10T07:05:21;77.33;;;24.70;;
2570;SDS011;1295;51.130;6.732;2023-05-10T07:07:47;74.20;;;20.30;;
2570;SDS011;1295;51.130;6.732;2023-05-10T07:10:12;76.33;;;20.90;;
2570;SDS011;1295;51.130;6.732;2023-05-10T07:12:38;74.63;;;17.97;;
2570;SDS011;1295;51.130;6.732;2023-05-10T07:15:04;72.50;;;20.10;;
2570;SDS011;1295;51.130;6.732;2023-05-10T07:17:31;75.37;;;24.47;;
2570;SDS011;1295;51.130;6.732;2023-05-10T07:19:57;79.67;;;21.73;;
2570;SDS011;1295;51.130;6.732;2023-05-10T07:22:22;73.33;;;21.73;;
2570;SDS011;1295;51.130;6.732;2023-05-10T07:24:48;77.83;;;22.23;;
2570;SDS011;1295;51.130;6.732;2023-05-10T07:27:14;72.70;;;19.80;;
2570;SDS011;1295;51.130;6.732;2023-05-10T07:29:40;67.47;;;14.20;;
2570;SDS011;1295;51.130;6.732;2023-05-10T07:32:06;70.30;;;16.00;;
2570;SDS011;1295;51.130;6.732;2023-05-10T07:34:31;72.27;;;17.47;;
2570;SDS011;1295;51.130;6.732;2023-05-10T07:36:58;73.70;;;17.83;;
2570;SDS011;1295;51.130;6.732;2023-05-10T07:39:23;76.67;;;18.33;;
2570;SDS011;1295;51.130;6.732;2023-05-10T07:41:50;73.80;;;18.20;;
2570;SDS011;1295;51.130;6.732;2023-05-10T07:44:15;67.63;;;15.93;;
2570;SDS011;1295;51.130;6.732;2023-05-10T07:46:41;71.40;;;17.17;;
2570;SDS011;1295;51.130;6.732;2023-05-10T07:49:07;72.83;;;19.27;;
2570;SDS011;1295;51.130;6.732;2023-05-10T07:51:33;78.80;;;19.00;;
2570;SDS011;1295;51.130;6.732;2023-05-10T07:53:59;76.97;;;22.20;;
2570;SDS011;1295;51.130;6.732;2023-05-10T07:56:27;82.77;;;21.57;;
2570;SDS011;1295;51.130;6.732;2023-05-10T07:58:53;100.50;;;30.70;;
2570;SDS011;1295;51.130;6.732;2023-05-10T08:01:18;96.60;;;26.30;;
2570;SDS011;1295;51.130;6.732;2023-05-10T08:03:44;114.37;;;29.97;;
2570;SDS011;1295;51.130;6.732;2023-05-10T08:06:09;105.03;;;29.33;;
2570;SDS011;1295;51.130;6.732;2023-05-10T08:08:35;75.47;;;15.37;;
2570;SDS011;1295;51.130;6.732;2023-05-10T08:11:01;78.13;;;16.90;;
2570;SDS011;1295;51.130;6.732;2023-05-10T08:13:26;76.30;;;13.83;;
2570;SDS011;1295;51.130;6.732;2023-05-10T08:15:52;95.97;;;26.53;;
2570;SDS011;1295;51.130;6.732;2023-05-10T08:18:18;79.87;;;15.90;;
2570;SDS011;1295;51.130;6.732;2023-05-10T08:20:43;105.30;;;27.70;;
2570;SDS011;1295;51.130;6.732;2023-05-10T08:23:09;113.90;;;30.83;;
2570;SDS011;1295;51.130;6.732;2023-05-10T08:25:34;83.00;;;20.10;;
2570;SDS011;1295;51.130;6.732;2023-05-10T08:28:00;98.43;;;21.13;;
2570;SDS011;1295;51.130;6.732;2023-05-10T08:30:26;95.47;;;24.90;;
2570;SDS011;1295;51.130;6.732;2023-05-10T08:32:52;105.13;;;27.60;;
2570;SDS011;1295;51.130;6.732;2023-05-10T08:35:18;84.80;;;19.30;;
2570;SDS011;1295;51.130;6.732;2023-05-10T08:37:43;95.83;;;22.93;;
2570;SDS011;1295;51.130;6.732;2023-05-10T08:40:09;96.40;;;26.97;;
2570;SDS011;1295;51.130;6.732;2023-05-10T08:42:36;98.90;;;25.63;;
2570;SDS011;1295;51.130;6.732;2023-05-10T08:45:01;112.97;;;29.90;;
2570;SDS011;1295;51.130;6.732;2023-05-10T08:47:28;109.00;;;27.70;;
2570;SDS011;1295;51.130;6.732;2023-05-10T08:49:53;117.83;;;28.80;;
2570;SDS011;1295;51.130;6.732;2023-05-10T08:52:19;102.50;;;27.10;;
2570;SDS011;1295;51.130;6.732;2023-05-10T08:54:44;97.33;;;22.07;;
2570;SDS011;1295;51.130;6.732;2023-05-10T08:57:10;100.90;;;25.47;;
2570;SDS011;1295;51.130;6.732;2023-05-10T08:59:36;90.43;;;19.97;;
2570;SDS011;1295;51.130;6.732;2023-05-10T09:02:01;99.50;;;25.60;;
2570;SDS011;1295;51.130;6.732;2023-05-10T09:04:27;97.03;;;24.10;;
2570;SDS011;1295;51.130;6.732;2023-05-10T09:06:53;99.90;;;23.17;;
2570;SDS011;1295;51.130;6.732;2023-05-10T09:09:19;91.27;;;23.70;;
2570;SDS011;1295;51.130;6.732;2023-05-10T09:11:44;89.90;;;23.10;;
2570;SDS011;1295;51.130;6.732;2023-05-10T09:14:10;94.97;;;26.37;;
2570;SDS011;1295;51.130;6.732;2023-05-10T09:16:35;88.43;;;23.03;;
2570;SDS011;1295;51.130;6.732;2023-05-10T09:19:01;87.33;;;22.93;;
2570;SDS011;1295;51.130;6.732;2023-05-10T09:21:27;80.07;;;22.57;;
2570;SDS011;1295;51.130;6.732;2023-05-10T09:23:53;84.80;;;24.87;;
2570;SDS011;1295;51.130;6.732;2023-05-10T09:26:21;84.10;;;24.57;;
2570;SDS011;1295;51.130;6.732;2023-05-10T09:28:52;81.17;;;23.93;;
2570;SDS011;1295;51.130;6.732;2023-05-10T09:31:18;84.03;;;21.53;;
2570;SDS011;1295;51.130;6.732;2023-05-10T09:33:44;88.87;;;24.30;;
2570;SDS011;1295;51.130;6.732;2023-05-10T09:36:10;82.10;;;22.13;;
2570;SDS011;1295;51.130;6.732;2023-05-10T09:41:15;84.27;;;21.00;;
2570;SDS011;1295;51.130;6.732;2023-05-10T09:43:40;80.00;;;21.90;;
2570;SDS011;1295;51.130;6.732;2023-05-10T09:46:08;85.13;;;21.23;;
2570;SDS011;1295;51.130;6.732;2023-05-10T09:48:31;82.27;;;19.07;;
2570;SDS011;1295;51.130;6.732;2023-05-10T09:50:57;82.07;;;21.47;;
2570;SDS011;1295;51.130;6.732;2023-05-10T09:53:22;73.30;;;17.53;;
2570;SDS011;1295;51.130;6.732;2023-05-10T09:55:48;82.10;;;17.87;;
2570;SDS011;1295;51.130;6.732;2023-05-10T09:58:14;74.50;;;16.70;;
2570;SDS011;1295;51.130;6.732;2023-05-10T10:00:41;79.23;;;16.57;;
2570;SDS011;1295;51.130;6.732;2023-05-10T10:03:12;80.47;;;17.90;;
2570;SDS011;1295;51.130;6.732;2023-05-10T10:05:38;83.23;;;22.47;;
2570;SDS011;1295;51.130;6.732;2023-05-10T10:08:03;76.57;;;20.47;;
2570;SDS011;1295;51.130;6.732;2023-05-10T10:10:29;78.67;;;17.60;;
2570;SDS011;1295;51.130;6.732;2023-05-10T10:12:54;89.60;;;19.23;;
2570;SDS011;1295;51.130;6.732;2023-05-10T10:15:20;74.00;;;15.83;;
2570;SDS011;1295;51.130;6.732;2023-05-10T10:17:45;75.57;;;18.93;;
2570;SDS011;1295;51.130;6.732;2023-05-10T10:20:11;79.13;;;18.70;;
2570;SDS011;1295;51.130;6.732;2023-05-10T10:22:37;77.27;;;18.83;;
2570;SDS011;1295;51.130;6.732;2023-05-10T10:25:04;78.93;;;20.47;;
2570;SDS011;1295;51.130;6.732;2023-05-10T10:27:34;82.10;;;17.83;;
2570;SDS011;1295;51.130;6.732;2023-05-10T10:35:53;72.20;;;17.83;;
2570;SDS011;1295;51.130;6.732;2023-05-10T10:38:19;71.80;;;14.70;;
2570;SDS011;1295;51.130;6.732;2023-05-10T10:40:45;73.47;;;18.73;;
2570;SDS011;1295;51.130;6.732;2023-05-10T10:48:27;74.73;;;19.63;;
2570;SDS011;1295;51.130;6.732;2023-05-10T10:50:56;78.00;;;19.43;;
2570;SDS011;1295;51.130;6.732;2023-05-10T10:53:22;80.77;;;16.67;;
2570;SDS011;1295;51.130;6.732;2023-05-10T10:55:48;77.53;;;18.67;;
2570;SDS011;1295;51.130;6.732;2023-05-10T10:58:29;78.57;;;18.60;;
2570;SDS011;1295;51.130;6.732;2023-05-10T11:01:07;74.13;;;19.67;;
2570;SDS011;1295;51.130;6.732;2023-05-10T11:03:20;70.97;;;17.97;;
2570;SDS011;1295;51.130;6.732;2023-05-10T11:05:46;72.87;;;17.67;;
2570;SDS011;1295;51.130;6.732;2023-05-10T11:08:18;71.37;;;16.70;;
2570;SDS011;1295;51.130;6.732;2023-05-10T11:11:03;68.97;;;14.97;;
2570;SDS011;1295;51.130;6.732;2023-05-10T11:13:28;72.27;;;17.50;;
2570;SDS011;1295;51.130;6.732;2023-05-10T11:15:53;70.70;;;20.03;;
2570;SDS011;1295;51.130;6.732;2023-05-10T11:18:23;71.23;;;17.47;;
2570;SDS011;1295;51.130;6.732;2023-05-10T11:20:51;74.60;;;18.23;;
2570;SDS011;1295;51.130;6.732;2023-05-10T11:23:16;72.23;;;17.77;;
2570;SDS011;1295;51.130;6.732;2023-05-10T11:25:42;75.03;;;18.13;;
2570;SDS011;1295;51.130;6.732;2023-05-10T11:28:08;72.40;;;19.93;;
2570;SDS011;1295;51.130;6.732;2023-05-10T11:30:33;76.60;;;19.07;;
2570;SDS011;1295;51.130;6.732;2023-05-10T11:32:59;71.97;;;20.30;;
2570;SDS011;1295;51.130;6.732;2023-05-10T11:35:27;73.43;;;20.13;;
2570;SDS011;1295;51.130;6.732;2023-05-10T11:37:51;73.90;;;19.27;;
2570;SDS011;1295;51.130;6.732;2023-05-10T11:40:16;69.27;;;16.77;;
2570;SDS011;1295;51.130;6.732;2023-05-10T11:42:43;68.00;;;17.10;;
2570;SDS011;1295;51.130;6.732;2023-05-10T11:45:09;75.07;;;18.90;;
2570;SDS011;1295;51.130;6.732;2023-05-10T11:47:36;70.30;;;18.60;;
2570;SDS011;1295;51.130;6.732;2023-05-10T11:50:02;69.77;;;16.83;;
2570;SDS011;1295;51.130;6.732;2023-05-10T11:52:27;68.13;;;18.07;;
2570;SDS011;1295;51.130;6.732;2023-05-10T11:54:53;70.87;;;21.30;;
2570;SDS011;1295;51.130;6.732;2023-05-10T11:57:20;67.30;;;15.07;;
2570;SDS011;1295;51.130;6.732;2023-05-10T11:59:45;69.37;;;17.50;;
2570;SDS011;1295;51.130;6.732;2023-05-10T12:02:11;61.80;;;13.93;;
2570;SDS011;1295;51.130;6.732;2023-05-10T12:04:36;68.30;;;16.60;;
2570;SDS011;1295;51.130;6.732;2023-05-10T12:07:02;65.63;;;17.03;;
2570;SDS011;1295;51.130;6.732;2023-05-10T12:09:28;66.57;;;15.90;;
2570;SDS011;1295;51.130;6.732;2023-05-10T12:11:55;66.87;;;15.77;;
2570;SDS011;1295;51.130;6.732;2023-05-10T12:14:19;67.33;;;17.90;;
2570;SDS011;1295;51.130;6.732;2023-05-10T12:16:45;65.67;;;17.20;;
2570;SDS011;1295;51.130;6.732;2023-05-10T12:19:10;69.77;;;17.90;;
2570;SDS011;1295;51.130;6.732;2023-05-10T12:21:36;71.23;;;17.00;;
2570;SDS011;1295;51.130;6.732;2023-05-10T12:24:02;68.20;;;17.77;;
2570;SDS011;1295;51.130;6.732;2023-05-10T12:26:27;68.97;;;18.30;;
2570;SDS011;1295;51.130;6.732;2023-05-10T12:28:53;69.47;;;19.70;;
2570;SDS011;1295;51.130;6.732;2023-05-10T12:31:18;64.57;;;18.07;;
2570;SDS011;1295;51.130;6.732;2023-05-10T12:33:45;65.47;;;16.63;;
2570;SDS011;1295;51.130;6.732;2023-05-10T12:36:11;80.13;;;21.30;;
2570;SDS011;1295;51.130;6.732;2023-05-10T12:38:38;66.73;;;16.57;;
2570;SDS011;1295;51.130;6.732;2023-05-10T12:41:04;67.20;;;18.57;;
2570;SDS011;1295;51.130;6.732;2023-05-10T12:43:30;71.67;;;20.27;;
2570;SDS011;1295;51.130;6.732;2023-05-10T12:45:56;72.87;;;18.97;;
2570;SDS011;1295;51.130;6.732;2023-05-10T12:48:21;72.77;;;18.40;;
2570;SDS011;1295;51.130;6.732;2023-05-10T12:50:47;72.83;;;16.80;;
2570;SDS011;1295;51.130;6.732;2023-05-10T12:53:14;69.60;;;19.20;;
2570;SDS011;1295;51.130;6.732;2023-05-10T12:55:39;70.40;;;19.37;;
2570;SDS011;1295;51.130;6.732;2023-05-10T12:58:05;71.77;;;18.17;;
2570;SDS011;1295;51.130;6.732;2023-05-10T13:00:31;69.70;;;19.80;;
2570;SDS011;1295;51.130;6.732;2023-05-10T13:02:57;67.60;;;19.10;;
2570;SDS011;1295;51.130;6.732;2023-05-10T13:05:22;73.97;;;24.00;;
2570;SDS011;1295;51.130;6.732;2023-05-10T13:07:49;77.60;;;20.00;;
2570;SDS011;1295;51.130;6.732;2023-05-10T13:10:14;69.47;;;19.50;;
2570;SDS011;1295;51.130;6.732;2023-05-10T13:12:40;77.20;;;20.27;;
2570;SDS011;1295;51.130;6.732;2023-05-10T13:15:21;72.70;;;21.47;;
2570;SDS011;1295;51.130;6.732;2023-05-10T13:17:46;73.57;;;21.20;;
2570;SDS011;1295;51.130;6.732;2023-05-10T13:20:13;71.33;;;21.30;;
2570;SDS011;1295;51.130;6.732;2023-05-10T13:22:38;79.40;;;22.10;;
2570;SDS011;1295;51.130;6.732;2023-05-10T13:25:04;77.80;;;21.20;;
2570;SDS011;1295;51.130;6.732;2023-05-10T13:27:30;72.13;;;20.60;;
2570;SDS011;1295;51.130;6.732;2023-05-10T13:29:56;72.57;;;20.00;;
2570;SDS011;1295;51.130;6.732;2023-05-10T13:32:22;72.73;;;21.60;;
2570;SDS011;1295;51.130;6.732;2023-05-10T13:34:48;71.90;;;19.50;;
2570;SDS011;1295;51.130;6.732;2023-05-10T13:37:14;73.43;;;20.53;;
2570;SDS011;1295;51.130;6.732;2023-05-10T13:39:40;73.93;;;23.00;;
2570;SDS011;1295;51.130;6.732;2023-05-10T13:42:17;67.23;;;19.53;;
2570;SDS011;1295;51.130;6.732;2023-05-10T13:44:42;73.90;;;20.17;;
2570;SDS011;1295;51.130;6.732;2023-05-10T13:47:08;70.53;;;20.87;;
2570;SDS011;1295;51.130;6.732;2023-05-10T13:49:33;67.07;;;17.53;;
2570;SDS011;1295;51.130;6.732;2023-05-10T13:51:59;70.17;;;18.30;;
2570;SDS011;1295;51.130;6.732;2023-05-10T13:54:24;73.50;;;18.20;;
2570;SDS011;1295;51.130;6.732;2023-05-10T13:56:51;70.20;;;18.37;;
2570;SDS011;1295;51.130;6.732;2023-05-10T13:59:16;74.07;;;20.77;;
2570;SDS011;1295;51.130;6.732;2023-05-10T14:01:42;71.57;;;19.17;;
2570;SDS011;1295;51.130;6.732;2023-05-10T14:04:08;71.70;;;17.83;;
2570;SDS011;1295;51.130;6.732;2023-05-10T14:06:33;66.00;;;15.33;;
2570;SDS011;1295;51.130;6.732;2023-05-10T14:09:00;65.40;;;14.60;;
2570;SDS011;1295;51.130;6.732;2023-05-10T14:11:25;69.60;;;19.20;;
2570;SDS011;1295;51.130;6.732;2023-05-10T14:13:51;71.13;;;18.93;;
2570;SDS011;1295;51.130;6.732;2023-05-10T14:16:17;62.60;;;14.70;;
2570;SDS011;1295;51.130;6.732;2023-05-10T14:18:42;61.57;;;12.30;;
2570;SDS011;1295;51.130;6.732;2023-05-10T14:21:08;65.80;;;17.07;;
2570;SDS011;1295;51.130;6.732;2023-05-10T14:23:33;61.97;;;16.57;;
2570;SDS011;1295;51.130;6.732;2023-05-10T14:25:59;66.10;;;15.30;;
2570;SDS011;1295;51.130;6.732;2023-05-10T14:28:25;67.17;;;21.43;;
2570;SDS011;1295;51.130;6.732;2023-05-10T14:30:51;66.37;;;20.97;;
2570;SDS011;1295;51.130;6.732;2023-05-10T14:33:17;71.47;;;16.70;;
2570;SDS011;1295;51.130;6.732;2023-05-10T14:35:42;64.70;;;20.20;;
2570;SDS011;1295;51.130;6.732;2023-05-10T14:38:08;66.90;;;19.00;;
2570;SDS011;1295;51.130;6.732;2023-05-10T14:40:34;74.73;;;24.13;;
2570;SDS011;1295;51.130;6.732;2023-05-10T14:42:59;68.53;;;20.63;;
2570;SDS011;1295;51.130;6.732;2023-05-10T14:45:25;67.50;;;17.13;;
2570;SDS011;1295;51.130;6.732;2023-05-10T14:47:51;59.93;;;15.27;;
2570;SDS011;1295;51.130;6.732;2023-05-10T14:50:16;61.97;;;20.67;;
2570;SDS011;1295;51.130;6.732;2023-05-10T14:52:42;61.30;;;18.13;;
2570;SDS011;1295;51.130;6.732;2023-05-10T14:55:08;62.87;;;18.33;;
2570;SDS011;1295;51.130;6.732;2023-05-10T14:57:34;61.30;;;13.83;;
2570;SDS011;1295;51.130;6.732;2023-05-10T14:59:59;61.90;;;16.33;;
2570;SDS011;1295;51.130;6.732;2023-05-10T15:02:25;57.70;;;12.93;;